sensor_id;sensor_type;location;lat;lon;timestamp;pressure;altitude;pressure_sealevel;temperature;humidity
36898;BME280;22827;53.108;-6.738;2023-07-20T00:02:17;100656.69;;;12.22;49.69
36898;BME280;22827;53.108;-6.738;2023-07-20T00:04:44;100653.47;;;11.95;50.03
36898;BME280;22827;53.108;-6.738;2023-07-20T00:07:11;100654.25;;;12.53;49.62
36898;BME280;22827;53.108;-6.738;2023-07-20T00:09:38;100657.40;;;12.06;49.67
36898;BME280;22827;53.108;-6.738;2023-07-20T00:12:07;100658.75;;;11.98;49.70
36898;BME280;22827;53.108;-6.738;2023-07-20T00:14:34;100658.84;;;12.23;49.34
36898;BME280;22827;53.108;-6.738;2023-07-20T00:17:02;100660.03;;;12.46;49.93
36898;BME280;22827;53.108;-6.738;2023-07-20T00:19:29;100658.51;;;12.05;49.58
36898;BME280;22827;53.108;-6.738;2023-07-20T00:21:56;100658.44;;;12.31;49.67
36898;BME280;22827;53.108;-6.738;2023-07-20T00:24:23;100658.22;;;12.12;50.12
36898;BME280;22827;53.108;-6.738;2023-07-20T00:26:50;100659.52;;;12.58;49.73
36898;BME280;22827;53.108;-6.738;2023-07-20T00:29:17;100657.05;;;11.96;49.89
36898;BME280;22827;53.108;-6.738;2023-07-20T00:31:45;100655.53;;;11.84;50.26
36898;BME280;22827;53.108;-6.738;2023-07-20T00:34:11;100655.84;;;12.24;50.20
36898;BME280;22827;53.108;-6.738;2023-07-20T00:36:39;100655.19;;;11.92;49.87
36898;BME280;22827;53.108;-6.738;2023-07-20T00:39:06;100655.42;;;12.29;49.64
36898;BME280;22827;53.108;-6.738;2023-07-20T00:41:32;100655.77;;;12.00;49.78
36898;BME280;22827;53.108;-6.738;2023-07-20T00:43:59;100654.13;;;12.36;49.78
36898;BME280;22827;53.108;-6.738;2023-07-20T00:46:26;100653.43;;;11.91;49.93
36898;BME280;22827;53.108;-6.738;2023-07-20T00:48:53;100653.13;;;11.79;50.18
36898;BME280;22827;53.108;-6.738;2023-07-20T00:51:21;100651.41;;;11.86;50.07
36898;BME280;22827;53.108;-6.738;2023-07-20T00:53:50;100650.08;;;12.07;49.88
36898;BME280;22827;53.108;-6.738;2023-07-20T00:56:20;100650.94;;;12.12;49.52
36898;BME280;22827;53.108;-6.738;2023-07-20T00:58:52;100647.42;;;11.93;49.75
36898;BME280;22827;53.108;-6.738;2023-07-20T01:01:22;100648.32;;;12.06;50.14
36898;BME280;22827;53.108;-6.738;2023-07-20T01:03:50;100649.21;;;11.83;50.51
36898;BME280;22827;53.108;-6.738;2023-07-20T01:06:29;100651.43;;;11.97;50.36
36898;BME280;22827;53.108;-6.738;2023-07-20T01:09:07;100648.69;;;11.94;50.36
36898;BME280;22827;53.108;-6.738;2023-07-20T01:11:47;100647.71;;;12.24;49.43
36898;BME280;22827;53.108;-6.738;2023-07-20T01:14:19;100648.72;;;12.19;49.85
36898;BME280;22827;53.108;-6.738;2023-07-20T01:16:59;100648.96;;;12.52;49.02
36898;BME280;22827;53.108;-6.738;2023-07-20T01:19:27;100642.74;;;11.66;50.38
36898;BME280;22827;53.108;-6.738;2023-07-20T01:22:02;100641.17;;;11.53;50.73
36898;BME280;22827;53.108;-6.738;2023-07-20T01:24:48;100636.05;;;11.58;50.75
36898;BME280;22827;53.108;-6.738;2023-07-20T01:29:47;100638.84;;;10.52;58.00
36898;BME280;22827;53.108;-6.738;2023-07-20T01:32:25;100631.28;;;11.06;53.79
36898;BME280;22827;53.108;-6.738;2023-07-20T01:34:55;100630.12;;;11.18;52.78
36898;BME280;22827;53.108;-6.738;2023-07-20T01:37:25;100627.14;;;11.06;52.47
36898;BME280;22827;53.108;-6.738;2023-07-20T01:39:57;100627.26;;;11.49;51.85
36898;BME280;22827;53.108;-6.738;2023-07-20T01:42:30;100622.25;;;12.32;50.76
36898;BME280;22827;53.108;-6.738;2023-07-20T01:44:59;100624.09;;;11.69;51.21
36898;BME280;22827;53.108;-6.738;2023-07-20T01:47:28;100622.04;;;12.99;49.12
36898;BME280;22827;53.108;-6.738;2023-07-20T01:49:58;100619.79;;;12.97;48.68
36898;BME280;22827;53.108;-6.738;2023-07-20T01:52:27;100618.40;;;11.98;49.45
36898;BME280;22827;53.108;-6.738;2023-07-20T01:55:00;100619.00;;;11.85;50.45
36898;BME280;22827;53.108;-6.738;2023-07-20T01:57:29;100616.84;;;12.18;50.22
36898;BME280;22827;53.108;-6.738;2023-07-20T01:59:57;100621.35;;;12.58;49.03
36898;BME280;22827;53.108;-6.738;2023-07-20T02:02:33;100624.01;;;11.82;50.03
36898;BME280;22827;53.108;-6.738;2023-07-20T02:05:04;100620.68;;;12.93;48.74
36898;BME280;22827;53.108;-6.738;2023-07-20T02:07:34;100621.20;;;11.84;49.83
36898;BME280;22827;53.108;-6.738;2023-07-20T02:10:01;100621.15;;;11.54;50.86
36898;BME280;22827;53.108;-6.738;2023-07-20T02:12:29;100623.09;;;10.43;51.86
36898;BME280;22827;53.108;-6.738;2023-07-20T02:14:59;100617.74;;;10.73;51.43
36898;BME280;22827;53.108;-6.738;2023-07-20T02:17:28;100620.25;;;11.30;50.75
36898;BME280;22827;53.108;-6.738;2023-07-20T02:19:57;100617.84;;;11.56;50.57
36898;BME280;22827;53.108;-6.738;2023-07-20T02:22:27;100620.61;;;11.73;50.25
36898;BME280;22827;53.108;-6.738;2023-07-20T02:24:59;100619.40;;;11.29;50.35
36898;BME280;22827;53.108;-6.738;2023-07-20T02:27:28;100618.35;;;11.13;51.27
36898;BME280;22827;53.108;-6.738;2023-07-20T02:29:56;100619.30;;;11.42;50.85
36898;BME280;22827;53.108;-6.738;2023-07-20T02:32:27;100617.80;;;11.95;50.56
36898;BME280;22827;53.108;-6.738;2023-07-20T02:34:55;100619.12;;;12.49;49.04
36898;BME280;22827;53.108;-6.738;2023-07-20T02:37:24;100616.14;;;11.36;49.56
36898;BME280;22827;53.108;-6.738;2023-07-20T02:39:52;100613.49;;;12.01;48.93
36898;BME280;22827;53.108;-6.738;2023-07-20T02:42:19;100611.56;;;11.63;50.00
36898;BME280;22827;53.108;-6.738;2023-07-20T02:44:49;100609.81;;;11.54;49.90
36898;BME280;22827;53.108;-6.738;2023-07-20T02:47:19;100607.53;;;11.40;50.03
36898;BME280;22827;53.108;-6.738;2023-07-20T02:49:48;100606.00;;;11.32;50.03
36898;BME280;22827;53.108;-6.738;2023-07-20T02:52:18;100606.09;;;11.42;49.88
36898;BME280;22827;53.108;-6.738;2023-07-20T02:54:48;100603.75;;;11.78;49.19
36898;BME280;22827;53.108;-6.738;2023-07-20T02:57:19;100603.28;;;12.09;48.79
36898;BME280;22827;53.108;-6.738;2023-07-20T02:59:47;100602.94;;;12.48;48.63
36898;BME280;22827;53.108;-6.738;2023-07-20T03:02:16;100604.35;;;12.85;48.31
36898;BME280;22827;53.108;-6.738;2023-07-20T03:04:46;100605.18;;;12.86;47.65
36898;BME280;22827;53.108;-6.738;2023-07-20T03:07:17;100606.71;;;12.38;48.02
36898;BME280;22827;53.108;-6.738;2023-07-20T03:09:45;100603.61;;;12.02;48.51
36898;BME280;22827;53.108;-6.738;2023-07-20T03:12:15;100599.49;;;11.47;49.44
36898;BME280;22827;53.108;-6.738;2023-07-20T03:14:48;100598.43;;;11.16;50.12
36898;BME280;22827;53.108;-6.738;2023-07-20T03:17:17;100597.23;;;10.76;50.36
36898;BME280;22827;53.108;-6.738;2023-07-20T03:19:47;100598.97;;;11.28;50.16
36898;BME280;22827;53.108;-6.738;2023-07-20T03:22:17;100597.15;;;11.27;50.25
36898;BME280;22827;53.108;-6.738;2023-07-20T03:24:45;100596.53;;;11.69;49.30
36898;BME280;22827;53.108;-6.738;2023-07-20T03:27:12;100596.53;;;11.68;49.55
36898;BME280;22827;53.108;-6.738;2023-07-20T03:29:39;100593.37;;;11.52;49.90
36898;BME280;22827;53.108;-6.738;2023-07-20T03:32:06;100590.77;;;11.63;49.74
36898;BME280;22827;53.108;-6.738;2023-07-20T03:34:33;100592.42;;;11.60;49.98
36898;BME280;22827;53.108;-6.738;2023-07-20T03:37:00;100593.43;;;11.81;50.01
36898;BME280;22827;53.108;-6.738;2023-07-20T03:39:27;100594.70;;;11.48;50.64
36898;BME280;22827;53.108;-6.738;2023-07-20T03:41:54;100594.13;;;11.61;50.17
36898;BME280;22827;53.108;-6.738;2023-07-20T03:44:21;100597.19;;;11.72;49.80
36898;BME280;22827;53.108;-6.738;2023-07-20T03:46:48;100597.00;;;11.55;49.90
36898;BME280;22827;53.108;-6.738;2023-07-20T03:49:15;100596.08;;;11.09;50.11
36898;BME280;22827;53.108;-6.738;2023-07-20T03:51:42;100595.95;;;10.91;50.45
36898;BME280;22827;53.108;-6.738;2023-07-20T03:54:09;100598.38;;;11.48;50.06
36898;BME280;22827;53.108;-6.738;2023-07-20T03:56:36;100599.78;;;11.38;50.26
36898;BME280;22827;53.108;-6.738;2023-07-20T03:59:03;100601.37;;;11.35;50.38
36898;BME280;22827;53.108;-6.738;2023-07-20T04:01:29;100600.11;;;11.33;50.13
36898;BME280;22827;53.108;-6.738;2023-07-20T04:03:56;100600.90;;;11.18;50.54
36898;BME280;22827;53.108;-6.738;2023-07-20T04:06:23;100601.29;;;11.55;49.68
36898;BME280;22827;53.108;-6.738;2023-07-20T04:08:51;100599.07;;;11.33;49.39
36898;BME280;22827;53.108;-6.738;2023-07-20T04:11:18;100599.01;;;11.01;49.60
36898;BME280;22827;53.108;-6.738;2023-07-20T04:13:44;100598.36;;;11.29;49.47
36898;BME280;22827;53.108;-6.738;2023-07-20T04:16:11;100603.11;;;11.21;49.08
36898;BME280;22827;53.108;-6.738;2023-07-20T04:18:38;100602.19;;;11.76;48.74
36898;BME280;22827;53.108;-6.738;2023-07-20T04:21:08;100598.18;;;11.73;48.04
36898;BME280;22827;53.108;-6.738;2023-07-20T04:23:35;100599.23;;;11.37;48.51
36898;BME280;22827;53.108;-6.738;2023-07-20T04:26:02;100597.39;;;11.12;49.23
36898;BME280;22827;53.108;-6.738;2023-07-20T04:28:29;100593.35;;;10.78;50.07
36898;BME280;22827;53.108;-6.738;2023-07-20T04:31:09;100594.82;;;10.98;50.01
36898;BME280;22827;53.108;-6.738;2023-07-20T04:33:36;100596.32;;;11.18;50.56
36898;BME280;22827;53.108;-6.738;2023-07-20T04:36:04;100597.52;;;10.90;50.32
36898;BME280;22827;53.108;-6.738;2023-07-20T04:38:32;100600.11;;;10.86;50.65
36898;BME280;22827;53.108;-6.738;2023-07-20T04:40:59;100600.10;;;10.90;50.42
36898;BME280;22827;53.108;-6.738;2023-07-20T04:43:26;100602.69;;;10.87;50.20
36898;BME280;22827;53.108;-6.738;2023-07-20T04:45:54;100601.03;;;11.04;50.02
36898;BME280;22827;53.108;-6.738;2023-07-20T04:48:20;100600.98;;;10.94;49.99
36898;BME280;22827;53.108;-6.738;2023-07-20T04:50:47;100601.16;;;10.80;50.07
36898;BME280;22827;53.108;-6.738;2023-07-20T04:53:14;100599.77;;;10.96;49.80
36898;BME280;22827;53.108;-6.738;2023-07-20T04:55:47;100598.67;;;10.91;49.91
36898;BME280;22827;53.108;-6.738;2023-07-20T04:58:15;100597.63;;;10.94;49.31
36898;BME280;22827;53.108;-6.738;2023-07-20T05:00:42;100599.62;;;10.82;49.40
36898;BME280;22827;53.108;-6.738;2023-07-20T05:03:08;100594.90;;;11.11;49.81
36898;BME280;22827;53.108;-6.738;2023-07-20T05:05:35;100595.34;;;11.23;49.06
36898;BME280;22827;53.108;-6.738;2023-07-20T05:08:04;100596.10;;;11.29;48.95
36898;BME280;22827;53.108;-6.738;2023-07-20T05:10:31;100593.91;;;10.48;50.02
36898;BME280;22827;53.108;-6.738;2023-07-20T05:12:58;100593.55;;;11.07;50.18
36898;BME280;22827;53.108;-6.738;2023-07-20T05:15:24;100592.12;;;11.98;48.98
36898;BME280;22827;53.108;-6.738;2023-07-20T05:17:51;100590.17;;;12.79;47.47
36898;BME280;22827;53.108;-6.738;2023-07-20T05:20:19;100589.49;;;12.68;46.64
36898;BME280;22827;53.108;-6.738;2023-07-20T05:22:46;100590.75;;;12.17;47.99
36898;BME280;22827;53.108;-6.738;2023-07-20T05:25:13;100584.17;;;11.25;49.92
36898;BME280;22827;53.108;-6.738;2023-07-20T05:27:40;100583.92;;;11.55;49.10
36898;BME280;22827;53.108;-6.738;2023-07-20T05:30:08;100579.54;;;11.38;49.95
36898;BME280;22827;53.108;-6.738;2023-07-20T05:32:35;100581.43;;;12.03;48.93
36898;BME280;22827;53.108;-6.738;2023-07-20T05:35:02;100577.37;;;11.98;48.91
36898;BME280;22827;53.108;-6.738;2023-07-20T05:37:29;100572.54;;;12.33;48.13
36898;BME280;22827;53.108;-6.738;2023-07-20T05:39:57;100580.02;;;11.97;48.28
36898;BME280;22827;53.108;-6.738;2023-07-20T05:42:24;100575.70;;;12.06;48.55
36898;BME280;22827;53.108;-6.738;2023-07-20T05:44:51;100567.81;;;13.18;46.60
36898;BME280;22827;53.108;-6.738;2023-07-20T05:47:18;100567.47;;;13.09;46.46
36898;BME280;22827;53.108;-6.738;2023-07-20T05:49:45;100573.38;;;12.90;46.90
36898;BME280;22827;53.108;-6.738;2023-07-20T05:52:13;100575.97;;;12.62;47.37
36898;BME280;22827;53.108;-6.738;2023-07-20T05:54:41;100582.12;;;12.15;47.64
36898;BME280;22827;53.108;-6.738;2023-07-20T05:57:08;100582.09;;;11.25;48.55
36898;BME280;22827;53.108;-6.738;2023-07-20T05:59:35;100582.32;;;12.22;49.03
36898;BME280;22827;53.108;-6.738;2023-07-20T06:02:03;100575.04;;;13.06;48.85
36898;BME280;22827;53.108;-6.738;2023-07-20T06:04:30;100575.78;;;13.80;47.41
36898;BME280;22827;53.108;-6.738;2023-07-20T06:06:58;100572.86;;;14.79;44.74
36898;BME280;22827;53.108;-6.738;2023-07-20T06:09:26;100573.19;;;14.34;43.30
36898;BME280;22827;53.108;-6.738;2023-07-20T06:11:53;100576.59;;;13.58;43.86
36898;BME280;22827;53.108;-6.738;2023-07-20T06:14:20;100578.95;;;13.97;43.49
36898;BME280;22827;53.108;-6.738;2023-07-20T06:16:47;100578.88;;;13.52;43.67
36898;BME280;22827;53.108;-6.738;2023-07-20T06:19:14;100578.65;;;14.93;42.41
36898;BME280;22827;53.108;-6.738;2023-07-20T06:21:40;100576.87;;;15.53;41.11
36898;BME280;22827;53.108;-6.738;2023-07-20T06:24:07;100576.80;;;16.12;39.66
36898;BME280;22827;53.108;-6.738;2023-07-20T06:26:35;100573.32;;;16.36;38.31
36898;BME280;22827;53.108;-6.738;2023-07-20T06:29:01;100570.35;;;16.81;37.55
36898;BME280;22827;53.108;-6.738;2023-07-20T06:31:28;100571.05;;;17.15;36.62
36898;BME280;22827;53.108;-6.738;2023-07-20T06:33:56;100570.66;;;16.86;36.86
36898;BME280;22827;53.108;-6.738;2023-07-20T06:36:22;100570.58;;;18.29;35.46
36898;BME280;22827;53.108;-6.738;2023-07-20T06:38:50;100574.50;;;17.42;35.28
36898;BME280;22827;53.108;-6.738;2023-07-20T06:41:18;100577.09;;;19.08;34.38
36898;BME280;22827;53.108;-6.738;2023-07-20T06:43:45;100583.30;;;17.19;36.56
36898;BME280;22827;53.108;-6.738;2023-07-20T06:46:12;100589.69;;;15.97;38.68
36898;BME280;22827;53.108;-6.738;2023-07-20T06:48:39;100592.96;;;14.75;39.98
36898;BME280;22827;53.108;-6.738;2023-07-20T06:51:07;100595.80;;;15.40;40.08
36898;BME280;22827;53.108;-6.738;2023-07-20T06:53:33;100597.49;;;15.79;39.42
36898;BME280;22827;53.108;-6.738;2023-07-20T06:56:00;100596.11;;;16.31;40.41
36898;BME280;22827;53.108;-6.738;2023-07-20T06:58:27;100596.52;;;16.05;41.30
36898;BME280;22827;53.108;-6.738;2023-07-20T07:00:54;100598.08;;;16.00;38.97
36898;BME280;22827;53.108;-6.738;2023-07-20T07:03:20;100598.12;;;16.60;39.33
36898;BME280;22827;53.108;-6.738;2023-07-20T07:05:47;100599.88;;;16.38;38.72
36898;BME280;22827;53.108;-6.738;2023-07-20T07:08:14;100602.71;;;15.43;39.98
36898;BME280;22827;53.108;-6.738;2023-07-20T07:10:41;100604.26;;;15.26;40.96
36898;BME280;22827;53.108;-6.738;2023-07-20T07:13:07;100607.06;;;15.33;41.90
36898;BME280;22827;53.108;-6.738;2023-07-20T07:15:34;100606.42;;;15.56;43.14
36898;BME280;22827;53.108;-6.738;2023-07-20T07:18:01;100599.43;;;15.34;40.97
36898;BME280;22827;53.108;-6.738;2023-07-20T07:20:29;100602.29;;;16.23;40.58
36898;BME280;22827;53.108;-6.738;2023-07-20T07:22:56;100600.79;;;17.69;38.43
36898;BME280;22827;53.108;-6.738;2023-07-20T07:25:23;100598.90;;;17.31;38.18
36898;BME280;22827;53.108;-6.738;2023-07-20T07:27:51;100595.63;;;17.44;37.25
36898;BME280;22827;53.108;-6.738;2023-07-20T07:30:18;100600.84;;;18.47;35.73
36898;BME280;22827;53.108;-6.738;2023-07-20T07:32:45;100596.30;;;18.19;36.15
36898;BME280;22827;53.108;-6.738;2023-07-20T07:35:12;100599.96;;;18.50;35.26
36898;BME280;22827;53.108;-6.738;2023-07-20T07:37:39;100598.23;;;18.40;35.88
36898;BME280;22827;53.108;-6.738;2023-07-20T07:40:07;100599.34;;;17.68;37.14
36898;BME280;22827;53.108;-6.738;2023-07-20T07:42:35;100596.34;;;17.81;36.68
36898;BME280;22827;53.108;-6.738;2023-07-20T07:45:01;100593.73;;;17.70;36.98
36898;BME280;22827;53.108;-6.738;2023-07-20T07:47:29;100593.46;;;17.59;36.62
36898;BME280;22827;53.108;-6.738;2023-07-20T07:49:56;100591.67;;;18.64;36.31
36898;BME280;22827;53.108;-6.738;2023-07-20T07:52:22;100594.04;;;19.15;34.20
36898;BME280;22827;53.108;-6.738;2023-07-20T07:54:50;100590.75;;;18.46;34.08
36898;BME280;22827;53.108;-6.738;2023-07-20T07:57:17;100591.71;;;19.73;33.52
36898;BME280;22827;53.108;-6.738;2023-07-20T07:59:44;100595.14;;;18.82;34.05
36898;BME280;22827;53.108;-6.738;2023-07-20T08:02:11;100587.53;;;18.69;33.94
36898;BME280;22827;53.108;-6.738;2023-07-20T08:04:38;100588.07;;;18.31;34.19
36898;BME280;22827;53.108;-6.738;2023-07-20T08:07:05;100586.50;;;19.85;33.28
36898;BME280;22827;53.108;-6.738;2023-07-20T08:09:32;100591.65;;;20.72;32.43
36898;BME280;22827;53.108;-6.738;2023-07-20T08:11:59;100587.03;;;19.78;31.97
36898;BME280;22827;53.108;-6.738;2023-07-20T08:14:26;100584.09;;;19.16;33.98
36898;BME280;22827;53.108;-6.738;2023-07-20T08:16:53;100585.57;;;20.53;31.56
36898;BME280;22827;53.108;-6.738;2023-07-20T08:19:21;100584.11;;;20.92;30.90
36898;BME280;22827;53.108;-6.738;2023-07-20T08:21:48;100586.85;;;20.59;30.94
36898;BME280;22827;53.108;-6.738;2023-07-20T08:24:16;100584.39;;;20.76;30.21
36898;BME280;22827;53.108;-6.738;2023-07-20T08:26:43;100578.27;;;21.50;30.45
36898;BME280;22827;53.108;-6.738;2023-07-20T08:29:09;100581.20;;;21.58;29.06
36898;BME280;22827;53.108;-6.738;2023-07-20T08:31:36;100585.16;;;20.50;30.93
36898;BME280;22827;53.108;-6.738;2023-07-20T08:34:03;100580.53;;;18.99;31.97
36898;BME280;22827;53.108;-6.738;2023-07-20T08:36:30;100581.32;;;19.88;31.24
36898;BME280;22827;53.108;-6.738;2023-07-20T08:38:57;100579.51;;;20.21;30.37
36898;BME280;22827;53.108;-6.738;2023-07-20T08:41:25;100583.05;;;20.90;30.23
36898;BME280;22827;53.108;-6.738;2023-07-20T08:43:54;100580.12;;;20.82;30.55
36898;BME280;22827;53.108;-6.738;2023-07-20T08:46:24;100581.91;;;19.09;32.15
36898;BME280;22827;53.108;-6.738;2023-07-20T08:48:53;100584.33;;;20.15;30.08
36898;BME280;22827;53.108;-6.738;2023-07-20T08:51:21;100585.02;;;20.04;31.49
36898;BME280;22827;53.108;-6.738;2023-07-20T08:53:51;100585.79;;;18.67;32.61
36898;BME280;22827;53.108;-6.738;2023-07-20T08:56:20;100586.38;;;19.28;32.51
36898;BME280;22827;53.108;-6.738;2023-07-20T08:58:47;100584.15;;;19.45;33.53
36898;BME280;22827;53.108;-6.738;2023-07-20T09:01:15;100588.96;;;18.64;34.19
36898;BME280;22827;53.108;-6.738;2023-07-20T09:03:45;100586.03;;;18.63;34.52
36898;BME280;22827;53.108;-6.738;2023-07-20T09:06:13;100583.97;;;17.49;34.90
36898;BME280;22827;53.108;-6.738;2023-07-20T09:08:41;100588.39;;;16.72;36.75
36898;BME280;22827;53.108;-6.738;2023-07-20T09:11:11;100592.64;;;16.52;36.70
36898;BME280;22827;53.108;-6.738;2023-07-20T09:13:39;100593.96;;;16.25;37.34
36898;BME280;22827;53.108;-6.738;2023-07-20T09:16:06;100587.02;;;14.91;39.37
36898;BME280;22827;53.108;-6.738;2023-07-20T09:18:33;100592.79;;;13.85;42.01
36898;BME280;22827;53.108;-6.738;2023-07-20T09:21:03;100591.06;;;14.61;41.28
36898;BME280;22827;53.108;-6.738;2023-07-20T09:23:31;100587.73;;;15.55;38.91
36898;BME280;22827;53.108;-6.738;2023-07-20T09:25:59;100594.92;;;14.22;41.68
36898;BME280;22827;53.108;-6.738;2023-07-20T09:28:27;100597.44;;;13.97;42.34
36898;BME280;22827;53.108;-6.738;2023-07-20T09:30:54;100595.22;;;13.60;44.10
36898;BME280;22827;53.108;-6.738;2023-07-20T09:33:22;100591.95;;;13.63;43.40
36898;BME280;22827;53.108;-6.738;2023-07-20T09:35:49;100589.45;;;15.64;42.32
36898;BME280;22827;53.108;-6.738;2023-07-20T09:38:17;100587.37;;;13.79;42.42
36898;BME280;22827;53.108;-6.738;2023-07-20T09:40:45;100588.12;;;14.40;42.54
36898;BME280;22827;53.108;-6.738;2023-07-20T09:43:11;100580.24;;;15.52;40.68
36898;BME280;22827;53.108;-6.738;2023-07-20T09:45:40;100580.00;;;15.98;38.43
36898;BME280;22827;53.108;-6.738;2023-07-20T09:48:09;100579.22;;;14.96;39.19
36898;BME280;22827;53.108;-6.738;2023-07-20T09:50:39;100580.91;;;15.08;40.40
36898;BME280;22827;53.108;-6.738;2023-07-20T09:53:09;100584.04;;;14.64;42.19
36898;BME280;22827;53.108;-6.738;2023-07-20T09:55:39;100581.56;;;13.59;42.85
36898;BME280;22827;53.108;-6.738;2023-07-20T09:58:08;100581.21;;;14.04;43.10
36898;BME280;22827;53.108;-6.738;2023-07-20T10:00:37;100575.88;;;14.08;42.74
36898;BME280;22827;53.108;-6.738;2023-07-20T10:03:06;100571.19;;;14.63;40.70
36898;BME280;22827;53.108;-6.738;2023-07-20T10:05:36;100572.64;;;13.72;42.67
36898;BME280;22827;53.108;-6.738;2023-07-20T10:08:04;100565.42;;;15.02;39.63
36898;BME280;22827;53.108;-6.738;2023-07-20T10:10:34;100561.10;;;15.42;38.51
36898;BME280;22827;53.108;-6.738;2023-07-20T10:13:02;100561.53;;;16.41;38.04
36898;BME280;22827;53.108;-6.738;2023-07-20T10:15:32;100554.18;;;16.37;37.82
36898;BME280;22827;53.108;-6.738;2023-07-20T10:18:03;100558.51;;;15.26;39.28
36898;BME280;22827;53.108;-6.738;2023-07-20T10:20:36;100564.11;;;14.10;39.65
36898;BME280;22827;53.108;-6.738;2023-07-20T10:23:04;100564.38;;;13.76;41.74
36898;BME280;22827;53.108;-6.738;2023-07-20T10:25:31;100568.55;;;13.14;38.85
36898;BME280;22827;53.108;-6.738;2023-07-20T10:28:00;100567.12;;;13.13;40.51
36898;BME280;22827;53.108;-6.738;2023-07-20T10:30:28;100564.38;;;13.42;40.89
36898;BME280;22827;53.108;-6.738;2023-07-20T10:32:56;100563.39;;;14.42;38.03
36898;BME280;22827;53.108;-6.738;2023-07-20T10:35:23;100560.98;;;14.38;39.55
36898;BME280;22827;53.108;-6.738;2023-07-20T10:37:52;100562.14;;;14.53;40.96
36898;BME280;22827;53.108;-6.738;2023-07-20T10:40:29;100556.60;;;13.88;41.25
36898;BME280;22827;53.108;-6.738;2023-07-20T10:43:06;100561.65;;;13.91;40.36
36898;BME280;22827;53.108;-6.738;2023-07-20T10:45:35;100559.21;;;14.23;38.42
36898;BME280;22827;53.108;-6.738;2023-07-20T10:48:04;100554.94;;;14.45;38.06
36898;BME280;22827;53.108;-6.738;2023-07-20T10:50:33;100557.77;;;14.50;40.99
36898;BME280;22827;53.108;-6.738;2023-07-20T10:53:10;100550.70;;;14.54;38.90
36898;BME280;22827;53.108;-6.738;2023-07-20T10:55:37;100542.32;;;13.98;39.35
36898;BME280;22827;53.108;-6.738;2023-07-20T10:58:09;100538.02;;;13.27;40.93
36898;BME280;22827;53.108;-6.738;2023-07-20T11:00:36;100543.64;;;14.60;41.08
36898;BME280;22827;53.108;-6.738;2023-07-20T11:03:03;100539.87;;;14.84;40.56
36898;BME280;22827;53.108;-6.738;2023-07-20T11:05:36;100542.01;;;14.98;39.09
36898;BME280;22827;53.108;-6.738;2023-07-20T11:08:05;100538.85;;;15.61;40.46
36898;BME280;22827;53.108;-6.738;2023-07-20T11:10:33;100541.93;;;14.67;39.12
36898;BME280;22827;53.108;-6.738;2023-07-20T11:13:33;100542.58;;;14.69;38.76
36898;BME280;22827;53.108;-6.738;2023-07-20T11:16:02;100544.77;;;14.13;37.42
36898;BME280;22827;53.108;-6.738;2023-07-20T11:18:29;100541.52;;;13.95;38.63
36898;BME280;22827;53.108;-6.738;2023-07-20T11:20:57;100540.23;;;14.43;39.55
36898;BME280;22827;53.108;-6.738;2023-07-20T11:23:24;100536.16;;;14.70;38.04
36898;BME280;22827;53.108;-6.738;2023-07-20T11:25:52;100533.72;;;15.06;37.14
36898;BME280;22827;53.108;-6.738;2023-07-20T11:28:19;100530.91;;;15.43;35.57
36898;BME280;22827;53.108;-6.738;2023-07-20T11:30:52;100529.40;;;16.01;34.96
36898;BME280;22827;53.108;-6.738;2023-07-20T11:33:20;100528.14;;;15.14;34.80
36898;BME280;22827;53.108;-6.738;2023-07-20T11:35:49;100530.82;;;15.88;36.21
36898;BME280;22827;53.108;-6.738;2023-07-20T11:38:16;100529.33;;;15.15;35.37
36898;BME280;22827;53.108;-6.738;2023-07-20T11:40:44;100529.17;;;15.27;36.69
36898;BME280;22827;53.108;-6.738;2023-07-20T11:43:12;100532.30;;;14.90;38.07
36898;BME280;22827;53.108;-6.738;2023-07-20T11:45:40;100531.46;;;14.16;37.14
36898;BME280;22827;53.108;-6.738;2023-07-20T11:48:07;100532.82;;;14.75;36.66
36898;BME280;22827;53.108;-6.738;2023-07-20T11:50:39;100530.18;;;15.06;36.02
36898;BME280;22827;53.108;-6.738;2023-07-20T11:53:07;100530.32;;;14.63;36.06
36898;BME280;22827;53.108;-6.738;2023-07-20T11:55:34;100528.32;;;15.58;35.45
36898;BME280;22827;53.108;-6.738;2023-07-20T11:58:03;100525.56;;;16.19;34.12
36898;BME280;22827;53.108;-6.738;2023-07-20T12:00:30;100524.02;;;16.02;33.11
36898;BME280;22827;53.108;-6.738;2023-07-20T12:02:57;100526.16;;;16.30;34.30
36898;BME280;22827;53.108;-6.738;2023-07-20T12:05:25;100522.59;;;16.30;32.92
36898;BME280;22827;53.108;-6.738;2023-07-20T12:07:52;100522.98;;;16.58;33.80
36898;BME280;22827;53.108;-6.738;2023-07-20T12:10:24;100521.58;;;15.37;34.69
36898;BME280;22827;53.108;-6.738;2023-07-20T12:12:52;100522.00;;;15.07;36.59
36898;BME280;22827;53.108;-6.738;2023-07-20T12:15:21;100524.26;;;13.88;39.57
36898;BME280;22827;53.108;-6.738;2023-07-20T12:17:50;100523.76;;;13.71;39.32
36898;BME280;22827;53.108;-6.738;2023-07-20T12:20:27;100523.64;;;14.00;40.74
36898;BME280;22827;53.108;-6.738;2023-07-20T12:22:58;100525.99;;;13.38;41.65
36898;BME280;22827;53.108;-6.738;2023-07-20T12:25:34;100535.79;;;12.46;43.30
36898;BME280;22827;53.108;-6.738;2023-07-20T12:28:05;100535.64;;;12.50;43.43
36898;BME280;22827;53.108;-6.738;2023-07-20T12:30:32;100536.68;;;11.57;43.36
36898;BME280;22827;53.108;-6.738;2023-07-20T12:32:59;100537.68;;;11.82;43.28
36898;BME280;22827;53.108;-6.738;2023-07-20T12:35:27;100537.40;;;12.15;43.70
36898;BME280;22827;53.108;-6.738;2023-07-20T12:37:55;100532.36;;;12.30;43.95
36898;BME280;22827;53.108;-6.738;2023-07-20T12:40:22;100530.56;;;12.84;44.17
36898;BME280;22827;53.108;-6.738;2023-07-20T12:42:49;100525.92;;;13.48;44.45
36898;BME280;22827;53.108;-6.738;2023-07-20T12:45:17;100521.94;;;13.16;42.71
36898;BME280;22827;53.108;-6.738;2023-07-20T12:47:44;100524.72;;;13.21;42.90
36898;BME280;22827;53.108;-6.738;2023-07-20T12:50:11;100522.79;;;13.52;42.70